createdAt,value
2023-01-17T00:01:34.011Z,1.20
2023-01-17T00:04:19.249Z,1.00
2023-01-17T00:07:04.375Z,0.73
2023-01-17T00:09:49.244Z,1.10
2023-01-17T00:12:15.808Z,0.65
2023-01-17T00:14:42.358Z,0.60
2023-01-17T00:17:08.828Z,1.00
2023-01-17T00:19:54.013Z,0.73
2023-01-17T00:22:47.730Z,1.20
2023-01-17T00:25:35.156Z,0.63
2023-01-17T00:28:01.992Z,0.93
2023-01-17T00:30:28.448Z,0.73
2023-01-17T00:32:54.951Z,0.70
2023-01-17T00:35:26.641Z,0.70
2023-01-17T00:38:10.991Z,0.60
2023-01-17T00:40:40.560Z,0.50
2023-01-17T00:43:26.678Z,0.32
2023-01-17T00:46:12.321Z,0.63
2023-01-17T00:48:58.358Z,0.50
2023-01-17T00:51:44.415Z,0.47
2023-01-17T00:54:30.316Z,0.68
2023-01-17T00:57:15.326Z,0.65
2023-01-17T01:00:00.749Z,0.65
2023-01-17T01:02:46.475Z,0.45
2023-01-17T01:05:32.065Z,0.93
2023-01-17T01:08:17.786Z,0.60
2023-01-17T01:11:04.016Z,0.90
2023-01-17T01:13:50.062Z,0.80
2023-01-17T01:16:36.370Z,0.95
2023-01-17T01:19:22.822Z,0.70
2023-01-17T01:22:08.440Z,0.22
2023-01-17T01:24:53.743Z,1.05
2023-01-17T01:27:38.802Z,0.93
2023-01-17T01:30:24.525Z,1.30
2023-01-17T01:33:09.613Z,0.73
2023-01-17T01:35:37.029Z,1.15
2023-01-17T01:38:03.883Z,1.40
2023-01-17T01:40:30.466Z,0.88
2023-01-17T01:42:59.900Z,1.15
2023-01-17T01:48:07.022Z,0.95
2023-01-17T01:50:37.433Z,1.00
2023-01-17T01:53:06.198Z,1.42
2023-01-17T01:55:42.184Z,0.70
2023-01-17T01:58:13.201Z,0.80
2023-01-17T02:00:41.025Z,1.00
2023-01-17T02:03:21.582Z,0.80
2023-01-17T02:05:48.433Z,0.70
2023-01-17T02:08:17.963Z,0.73
2023-01-17T02:10:44.889Z,0.80
2023-01-17T02:13:14.987Z,0.57
2023-01-17T02:15:47.492Z,1.23
2023-01-17T02:18:24.804Z,1.55
2023-01-17T02:21:13.008Z,0.70
2023-01-17T02:24:15.574Z,0.45
2023-01-17T02:26:55.641Z,1.00
2023-01-17T02:29:49.757Z,0.90
2023-01-17T02:35:00.047Z,0.70
2023-01-17T02:37:40.104Z,0.60
2023-01-17T02:40:12.900Z,0.40
2023-01-17T02:42:46.898Z,0.50
2023-01-17T02:45:18.818Z,0.50
2023-01-17T02:47:45.972Z,0.52
2023-01-17T02:50:17.208Z,0.70
2023-01-17T02:52:57.417Z,0.60
2023-01-17T02:55:35.940Z,0.43
2023-01-17T02:58:13.185Z,0.50
2023-01-17T03:00:39.628Z,0.40
2023-01-17T03:03:33.988Z,0.40
2023-01-17T03:06:17.426Z,0.30
2023-01-17T03:08:47.548Z,0.60
2023-01-17T03:11:14.918Z,0.35
2023-01-17T03:13:42.274Z,0.40
2023-01-17T03:16:15.107Z,0.50
2023-01-17T03:18:42.055Z,0.43
2023-01-17T03:21:08.656Z,0.65
2023-01-17T03:23:35.139Z,0.35
2023-01-17T03:26:01.611Z,0.52
2023-01-17T03:28:28.111Z,0.70
2023-01-17T03:30:54.731Z,0.68
2023-01-17T03:33:21.308Z,0.57
2023-01-17T03:35:50.847Z,0.80
2023-01-17T03:38:17.425Z,0.57
2023-01-17T03:40:43.917Z,1.10
2023-01-17T03:43:10.401Z,0.63
2023-01-17T03:45:37.670Z,0.55
2023-01-17T03:48:04.633Z,0.77
2023-01-17T03:50:31.607Z,0.98
2023-01-17T03:52:58.249Z,1.00
2023-01-17T03:55:24.791Z,1.25
2023-01-17T03:57:51.379Z,1.48
2023-01-17T04:00:18.156Z,1.98
2023-01-17T04:02:44.628Z,1.90
2023-01-17T04:05:11.360Z,2.20
2023-01-17T04:07:37.866Z,2.03
2023-01-17T04:10:04.925Z,2.05
2023-01-17T04:12:31.497Z,1.80
2023-01-17T04:14:58.023Z,1.33
2023-01-17T04:17:24.875Z,0.90
2023-01-17T04:19:51.676Z,1.40
2023-01-17T04:22:18.097Z,1.20
2023-01-17T04:24:44.513Z,1.08
2023-01-17T04:27:14.203Z,1.23
2023-01-17T04:29:40.700Z,1.45
2023-01-17T04:32:07.235Z,1.17
2023-01-17T04:34:33.719Z,1.20
2023-01-17T04:37:00.300Z,1.60
2023-01-17T04:39:26.726Z,1.27
2023-01-17T04:41:53.239Z,1.30
2023-01-17T04:44:19.692Z,1.58
2023-01-17T04:46:46.163Z,1.13
2023-01-17T04:49:12.668Z,1.50
2023-01-17T04:51:39.123Z,0.88
2023-01-17T04:54:05.585Z,1.05
2023-01-17T04:56:32.038Z,1.10
2023-01-17T04:58:58.545Z,0.98
2023-01-17T05:01:25.716Z,1.10
2023-01-17T05:03:52.379Z,1.35
2023-01-17T05:06:18.803Z,1.40
2023-01-17T05:08:45.219Z,1.10
2023-01-17T05:11:12.828Z,0.70
2023-01-17T05:13:39.323Z,1.25
2023-01-17T05:16:06.044Z,1.50
2023-01-17T05:18:32.498Z,0.52
2023-01-17T05:21:05.542Z,1.50
2023-01-17T05:23:32.943Z,1.23
2023-01-17T05:25:59.537Z,1.33
2023-01-17T05:28:26.085Z,1.50
2023-01-17T05:30:52.603Z,1.00
2023-01-17T05:33:19.103Z,1.30
2023-01-17T05:35:45.572Z,1.90
2023-01-17T05:38:12.094Z,1.65
2023-01-17T05:40:38.566Z,1.25
2023-01-17T05:43:05.089Z,1.73
2023-01-17T05:45:33.280Z,1.80
2023-01-17T05:48:00.296Z,1.27
2023-01-17T05:50:30.434Z,2.35
2023-01-17T05:53:02.982Z,2.65
2023-01-17T05:55:31.530Z,2.58
2023-01-17T05:57:58.300Z,2.13
2023-01-17T06:00:25.409Z,3.22
2023-01-17T06:02:57.124Z,2.35
2023-01-17T06:05:24.224Z,2.92
2023-01-17T06:07:50.937Z,2.40
2023-01-17T06:10:19.139Z,2.50
2023-01-17T06:12:46.685Z,1.60
2023-01-17T06:15:15.192Z,3.60
2023-01-17T06:17:41.955Z,3.40
2023-01-17T06:20:10.331Z,3.70
2023-01-17T06:22:36.734Z,3.90
2023-01-17T06:25:03.549Z,3.60
2023-01-17T06:27:29.985Z,3.90
2023-01-17T06:29:56.447Z,2.83
2023-01-17T06:32:22.932Z,2.20
2023-01-17T06:34:49.349Z,4.22
2023-01-17T06:37:15.861Z,4.25
2023-01-17T06:39:42.538Z,4.25
2023-01-17T06:42:09.071Z,4.15
2023-01-17T06:44:35.567Z,3.65
2023-01-17T06:47:02.233Z,4.05
2023-01-17T06:49:28.709Z,3.83
2023-01-17T06:51:55.268Z,4.22
2023-01-17T06:54:21.761Z,3.95
2023-01-17T06:56:48.377Z,4.22
2023-01-17T06:59:14.815Z,4.38
2023-01-17T07:01:41.556Z,4.75
2023-01-17T07:04:08.403Z,4.35
2023-01-17T07:06:38.061Z,4.82
2023-01-17T07:09:04.811Z,4.63
2023-01-17T07:11:31.885Z,4.95
2023-01-17T07:13:58.395Z,4.80
2023-01-17T07:16:24.926Z,5.63
2023-01-17T07:18:51.820Z,5.80
2023-01-17T07:21:18.380Z,5.97
2023-01-17T07:23:44.910Z,6.07
2023-01-17T07:26:11.409Z,5.50
2023-01-17T07:28:37.837Z,5.25
2023-01-17T07:31:06.906Z,5.13
2023-01-17T07:33:34.931Z,5.55
2023-01-17T07:36:09.255Z,5.65
2023-01-17T07:38:36.198Z,5.00
2023-01-17T07:41:03.215Z,5.15
2023-01-17T07:43:29.993Z,4.85
2023-01-17T07:45:56.703Z,4.90
2023-01-17T07:48:24.830Z,5.03
2023-01-17T07:50:56.593Z,4.50
2023-01-17T07:53:25.046Z,4.60
2023-01-17T07:55:51.774Z,4.22
2023-01-17T07:58:19.064Z,4.90
2023-01-17T08:00:45.785Z,3.72
2023-01-17T08:03:36.679Z,4.18
2023-01-17T08:06:03.420Z,4.13
2023-01-17T08:08:30.039Z,4.10
2023-01-17T08:10:56.561Z,4.20
2023-01-17T08:13:23.485Z,3.70
2023-01-17T08:15:50.629Z,4.10
2023-01-17T08:18:18.047Z,4.25
2023-01-17T08:20:45.565Z,4.22
2023-01-17T08:23:12.454Z,5.20
2023-01-17T08:25:40.282Z,4.88
2023-01-17T08:28:06.817Z,4.18
2023-01-17T08:30:33.360Z,4.53
2023-01-17T08:33:00.496Z,3.90
2023-01-17T08:35:27.916Z,4.22
2023-01-17T08:37:55.846Z,3.95
2023-01-17T08:40:22.829Z,3.17
2023-01-17T08:43:00.056Z,4.15
2023-01-17T08:45:28.069Z,3.83
2023-01-17T08:47:55.088Z,3.45
2023-01-17T08:50:21.658Z,3.78
2023-01-17T08:52:49.628Z,3.65
2023-01-17T08:55:17.242Z,3.65
2023-01-17T08:57:43.936Z,3.67
2023-01-17T09:00:11.199Z,3.55
2023-01-17T09:02:37.720Z,3.65
2023-01-17T09:05:04.657Z,3.80
2023-01-17T09:07:31.366Z,3.78
2023-01-17T09:09:58.021Z,3.92
2023-01-17T09:12:24.965Z,3.83
2023-01-17T09:14:51.718Z,3.72
2023-01-17T09:17:18.320Z,3.65
2023-01-17T09:19:47.514Z,3.58
2023-01-17T09:22:14.590Z,3.63
2023-01-17T09:24:42.175Z,3.78
2023-01-17T09:27:10.153Z,4.03
2023-01-17T09:29:36.812Z,3.55
2023-01-17T09:32:03.833Z,4.10
2023-01-17T09:34:30.722Z,3.22
2023-01-17T09:36:57.665Z,4.25
2023-01-17T09:39:24.571Z,3.45
2023-01-17T09:42:31.751Z,3.63
2023-01-17T09:44:59.410Z,3.75
2023-01-17T09:47:42.004Z,3.60
2023-01-17T09:50:27.111Z,3.78
2023-01-17T09:53:01.302Z,3.60
2023-01-17T09:55:37.002Z,4.40
2023-01-17T09:58:12.003Z,3.42
2023-01-17T10:00:42.873Z,3.80
2023-01-17T10:03:40.951Z,3.50
2023-01-17T10:06:16.731Z,3.28
2023-01-17T10:08:53.397Z,3.50
2023-01-17T10:11:57.552Z,3.70
2023-01-17T10:14:27.094Z,3.40
2023-01-17T10:16:59.993Z,3.50
2023-01-17T10:19:32.632Z,3.25
2023-01-17T10:22:10.683Z,4.45
2023-01-17T10:24:53.330Z,3.38
2023-01-17T10:27:40.246Z,3.97
2023-01-17T10:30:42.594Z,3.83
2023-01-17T10:33:20.073Z,4.07
2023-01-17T10:36:03.913Z,3.50
2023-01-17T10:38:33.949Z,3.63
2023-01-17T10:41:22.091Z,3.50
2023-01-17T10:43:57.492Z,3.70
2023-01-17T10:48:57.863Z,3.63
2023-01-17T10:51:50.256Z,3.28
2023-01-17T10:54:28.361Z,3.17
2023-01-17T10:56:55.144Z,3.55
2023-01-17T10:59:37.263Z,3.22
2023-01-17T11:02:35.426Z,3.25
2023-01-17T11:05:12.337Z,3.63
2023-01-17T11:07:40.184Z,3.15
2023-01-17T11:10:40.190Z,3.10
2023-01-17T11:13:21.400Z,3.10
2023-01-17T11:15:52.163Z,2.92
2023-01-17T11:18:21.097Z,3.65
2023-01-17T11:20:49.899Z,3.20
2023-01-17T11:23:22.503Z,3.05
2023-01-17T11:25:57.983Z,3.30
2023-01-17T11:28:30.742Z,3.08
2023-01-17T11:30:58.692Z,2.70
2023-01-17T11:33:45.137Z,3.30
2023-01-17T11:36:19.290Z,2.38
2023-01-17T11:39:03.028Z,3.13
2023-01-17T11:41:38.048Z,3.42
2023-01-17T11:44:20.841Z,3.50
2023-01-17T11:46:47.566Z,3.15
2023-01-17T11:49:25.333Z,3.13
2023-01-17T11:51:56.434Z,3.22
2023-01-17T11:54:33.392Z,2.78
2023-01-17T11:57:01.809Z,3.30
2023-01-17T11:59:42.395Z,3.17
2023-01-17T12:02:33.124Z,3.67
2023-01-17T12:05:37.488Z,2.85
2023-01-17T12:08:31.509Z,2.97
2023-01-17T12:11:14.385Z,2.80
2023-01-17T12:14:06.456Z,2.20
2023-01-17T12:16:59.947Z,2.60
2023-01-17T12:19:32.482Z,2.40
2023-01-17T12:22:17.930Z,2.63
2023-01-17T12:24:47.521Z,2.38
2023-01-17T12:27:51.150Z,2.25
2023-01-17T12:30:32.696Z,2.80
2023-01-17T12:33:37.816Z,2.83
2023-01-17T12:36:29.977Z,2.97
2023-01-17T12:39:01.393Z,2.83
2023-01-17T12:41:45.535Z,2.70
2023-01-17T12:44:18.065Z,2.58
2023-01-17T12:46:50.514Z,3.17
2023-01-17T12:49:41.796Z,2.85
2023-01-17T12:52:25.686Z,3.08
2023-01-17T12:55:01.912Z,2.67
2023-01-17T12:57:33.993Z,2.60
2023-01-17T13:00:26.771Z,3.03
2023-01-17T13:03:11.545Z,2.72
2023-01-17T13:05:46.010Z,3.03
2023-01-17T13:08:22.131Z,2.20
2023-01-17T13:10:57.591Z,2.40
2023-01-17T13:13:26.803Z,2.58
2023-01-17T13:16:21.311Z,2.70
2023-01-17T13:18:49.298Z,2.85
2023-01-17T13:21:25.043Z,2.17
2023-01-17T13:23:59.232Z,2.38
2023-01-17T13:26:47.615Z,2.55
2023-01-17T13:29:39.708Z,2.50
2023-01-17T13:32:14.613Z,2.72
2023-01-17T13:35:19.722Z,2.22
2023-01-17T13:37:56.064Z,2.08
2023-01-17T13:40:39.795Z,2.40
2023-01-17T13:43:14.687Z,1.90
2023-01-17T13:45:41.665Z,2.30
2023-01-17T13:48:18.223Z,2.20
2023-01-17T13:50:45.004Z,2.20
2023-01-17T13:53:45.797Z,2.35
2023-01-17T13:56:35.612Z,2.00
2023-01-17T13:59:04.970Z,2.00
2023-01-17T14:01:43.142Z,2.05
2023-01-17T14:04:12.847Z,1.80
2023-01-17T14:06:44.383Z,2.10
2023-01-17T14:09:16.228Z,2.13
2023-01-17T14:11:54.678Z,1.98
2023-01-17T14:14:40.036Z,1.88
2023-01-17T14:17:28.227Z,1.52
2023-01-17T14:20:18.006Z,1.65
2023-01-17T14:22:53.647Z,1.73
2023-01-17T14:25:25.316Z,1.50
2023-01-17T14:27:55.407Z,1.80
2023-01-17T14:30:37.076Z,2.08
2023-01-17T14:33:08.875Z,1.80
2023-01-17T14:35:52.012Z,1.70
2023-01-17T14:38:22.605Z,2.05
2023-01-17T14:41:04.867Z,1.80
2023-01-17T14:43:35.061Z,1.75
2023-01-17T14:46:05.280Z,1.88
2023-01-17T14:48:32.237Z,2.53
2023-01-17T14:51:01.986Z,2.42
2023-01-17T14:53:31.483Z,1.80
2023-01-17T14:56:04.030Z,1.92
2023-01-17T14:58:36.505Z,1.63
2023-01-17T15:01:09.682Z,1.80
2023-01-17T15:03:49.141Z,2.10
2023-01-17T15:06:24.819Z,2.00
2023-01-17T15:08:54.290Z,2.10
2023-01-17T15:11:27.412Z,1.98
2023-01-17T15:13:59.366Z,2.40
2023-01-17T15:16:38.994Z,2.17
2023-01-17T15:19:14.166Z,2.38
2023-01-17T15:21:43.808Z,1.90
2023-01-17T15:24:29.530Z,2.15
2023-01-17T15:26:56.237Z,1.90
2023-01-17T15:29:32.027Z,2.00
2023-01-17T15:32:04.437Z,2.22
2023-01-17T15:34:32.680Z,2.05
2023-01-17T15:37:02.936Z,1.80
2023-01-17T15:39:37.379Z,1.92
2023-01-17T15:42:07.821Z,2.00
2023-01-17T15:44:48.111Z,2.00
2023-01-17T15:47:31.631Z,2.25
2023-01-17T15:49:59.798Z,1.83
2023-01-17T15:52:27.540Z,1.88
2023-01-17T15:55:24.152Z,1.77
2023-01-17T15:57:50.836Z,1.95
2023-01-17T16:00:20.077Z,1.80
2023-01-17T16:02:58.727Z,1.73
2023-01-17T16:05:27.833Z,2.10
2023-01-17T16:08:18.424Z,1.90
2023-01-17T16:10:45.063Z,1.92
2023-01-17T16:13:13.665Z,1.85
2023-01-17T16:15:43.212Z,1.90
2023-01-17T16:18:20.481Z,1.52
2023-01-17T16:20:51.917Z,1.98
2023-01-17T16:23:18.516Z,1.67
2023-01-17T16:25:46.362Z,2.08
2023-01-17T16:28:13.145Z,1.92
2023-01-17T16:30:40.202Z,2.10
2023-01-17T16:33:09.807Z,2.30
2023-01-17T16:35:36.917Z,2.00
2023-01-17T16:38:06.729Z,3.50
2023-01-17T16:40:43.999Z,2.83
2023-01-17T16:43:14.480Z,2.95
2023-01-17T16:45:43.348Z,4.93
2023-01-17T16:48:12.657Z,23.17
2023-01-17T16:53:15.635Z,5.38
2023-01-17T16:55:43.250Z,10.63
2023-01-17T16:58:10.350Z,7.85
2023-01-17T17:00:37.271Z,3.58
2023-01-17T17:03:04.952Z,3.20
2023-01-17T17:05:33.624Z,3.10
2023-01-17T17:08:01.319Z,2.47
2023-01-17T17:10:27.931Z,2.97
2023-01-17T17:12:55.121Z,2.58
2023-01-17T17:15:21.792Z,2.72
2023-01-17T17:17:48.668Z,3.00
2023-01-17T17:20:16.341Z,2.60
2023-01-17T17:22:50.213Z,2.53
2023-01-17T17:25:17.815Z,2.83
2023-01-17T17:27:44.487Z,2.97
2023-01-17T17:30:12.674Z,3.10
2023-01-17T17:32:39.378Z,2.45
2023-01-17T17:35:06.366Z,2.95
2023-01-17T17:37:33.633Z,2.75
2023-01-17T17:40:00.392Z,3.00
2023-01-17T17:42:27.279Z,3.03
2023-01-17T17:44:54.224Z,2.63
2023-01-17T17:47:20.915Z,2.90
2023-01-17T17:49:47.695Z,3.08
2023-01-17T17:52:14.330Z,2.38
2023-01-17T17:54:41.032Z,2.83
2023-01-17T17:57:07.899Z,3.03
2023-01-17T17:59:34.885Z,2.85
2023-01-17T18:02:02.162Z,2.70
2023-01-17T18:04:28.920Z,2.40
2023-01-17T18:06:57.430Z,2.88
2023-01-17T18:09:24.563Z,2.53
2023-01-17T18:11:51.228Z,2.75
2023-01-17T18:14:21.063Z,2.38
2023-01-17T18:16:48.453Z,2.33
2023-01-17T18:19:20.918Z,2.20
2023-01-17T18:21:49.150Z,2.15
2023-01-17T18:24:17.147Z,2.60
2023-01-17T18:26:46.213Z,2.30
2023-01-17T18:29:15.877Z,2.20
2023-01-17T18:31:46.961Z,2.60
2023-01-17T18:34:15.979Z,2.85
2023-01-17T18:36:43.868Z,4.15
2023-01-17T18:39:16.744Z,4.47
2023-01-17T18:41:43.967Z,3.60
2023-01-17T18:44:11.780Z,3.97
2023-01-17T18:46:40.191Z,3.90
2023-01-17T18:49:07.248Z,3.17
2023-01-17T18:51:35.176Z,3.33
2023-01-17T18:54:06.597Z,3.67
2023-01-17T18:56:37.416Z,7.00
2023-01-17T18:59:09.767Z,5.15
2023-01-17T19:01:36.672Z,4.28
2023-01-17T19:04:05.331Z,8.57
2023-01-17T19:06:35.280Z,8.23
2023-01-17T19:09:03.076Z,5.38
2023-01-17T19:11:30.079Z,6.10
2023-01-17T19:13:56.918Z,6.07
2023-01-17T19:16:31.001Z,7.47
2023-01-17T19:19:03.302Z,7.22
2023-01-17T19:21:30.753Z,6.63
2023-01-17T19:23:58.200Z,6.55
2023-01-17T19:26:27.420Z,7.18
2023-01-17T19:28:56.836Z,5.95
2023-01-17T19:31:26.286Z,6.15
2023-01-17T19:33:57.384Z,4.40
2023-01-17T19:36:33.895Z,4.53
2023-01-17T19:39:05.656Z,4.38
2023-01-17T19:41:35.266Z,4.07
2023-01-17T19:44:07.256Z,3.88
2023-01-17T19:46:36.769Z,4.35
2023-01-17T19:51:35.148Z,4.20
2023-01-17T19:54:04.316Z,4.18
2023-01-17T19:56:31.694Z,4.68
2023-01-17T19:59:01.980Z,3.97
2023-01-17T20:01:31.859Z,4.00
2023-01-17T20:04:00.325Z,3.67
2023-01-17T20:06:33.716Z,3.83
2023-01-17T20:09:00.667Z,4.82
2023-01-17T20:11:28.728Z,4.82
2023-01-17T20:13:57.268Z,5.38
2023-01-17T20:16:26.948Z,4.50
2023-01-17T20:18:53.930Z,4.65
2023-01-17T20:21:25.954Z,4.40
2023-01-17T20:23:54.739Z,4.28
2023-01-17T20:26:24.351Z,4.32
2023-01-17T20:31:21.063Z,3.85
2023-01-17T20:33:50.443Z,4.78
2023-01-17T20:36:19.702Z,4.30
2023-01-17T20:38:49.214Z,4.15
2023-01-17T20:41:19.296Z,5.18
2023-01-17T20:43:48.589Z,4.68
2023-01-17T20:46:17.827Z,3.95
2023-01-17T20:48:46.688Z,4.45
2023-01-17T20:51:14.931Z,4.30
2023-01-17T20:53:43.504Z,5.75
2023-01-17T20:56:13.213Z,5.60
2023-01-17T20:58:40.688Z,4.00
2023-01-17T21:01:12.931Z,5.20
2023-01-17T21:03:40.266Z,5.63
2023-01-17T21:06:09.866Z,5.13
2023-01-17T21:11:06.065Z,4.80
2023-01-17T21:13:33.240Z,6.45
2023-01-17T21:16:00.684Z,6.50
2023-01-17T21:18:31.881Z,7.57
2023-01-17T21:21:08.235Z,7.15
2023-01-17T21:23:35.954Z,5.43
2023-01-17T21:26:03.468Z,4.53
2023-01-17T21:28:33.158Z,4.80
2023-01-17T21:31:00.495Z,4.28
2023-01-17T21:33:29.424Z,4.60
2023-01-17T21:36:07.763Z,4.13
2023-01-17T21:38:34.646Z,3.92
2023-01-17T21:41:01.366Z,4.10
2023-01-17T21:43:28.643Z,4.60
2023-01-17T21:45:55.703Z,5.30
2023-01-17T21:48:23.432Z,3.30
2023-01-17T21:50:52.674Z,4.68
2023-01-17T21:53:19.341Z,4.75
2023-01-17T21:56:04.834Z,5.97
2023-01-17T21:58:46.346Z,5.00
2023-01-17T22:01:22.348Z,5.70
2023-01-17T22:03:58.169Z,5.28
2023-01-17T22:06:27.468Z,6.25
2023-01-17T22:08:54.203Z,4.90
2023-01-17T22:11:23.815Z,4.72
2023-01-17T22:16:26.013Z,4.68
2023-01-17T22:18:52.763Z,5.40
2023-01-17T22:21:25.434Z,5.13
2023-01-17T22:23:54.413Z,5.32
2023-01-17T22:26:24.495Z,5.78
2023-01-17T22:28:51.253Z,5.15
2023-01-17T22:31:24.236Z,5.00
2023-01-17T22:33:55.179Z,4.72
2023-01-17T22:36:22.358Z,5.07
2023-01-17T22:38:49.402Z,5.30
2023-01-17T22:41:20.316Z,5.03
2023-01-17T22:43:49.413Z,4.40
2023-01-17T22:46:24.953Z,3.95
2023-01-17T22:48:52.926Z,4.40
2023-01-17T22:51:21.254Z,4.57
2023-01-17T22:53:50.122Z,4.10
2023-01-17T22:56:24.723Z,4.95
2023-01-17T22:58:51.340Z,3.97
2023-01-17T23:01:23.173Z,3.80
2023-01-17T23:03:56.047Z,4.05
2023-01-17T23:06:28.306Z,4.35
2023-01-17T23:08:57.358Z,3.90
2023-01-17T23:11:41.095Z,3.85
2023-01-17T23:14:20.136Z,3.45
2023-01-17T23:17:17.116Z,3.83
2023-01-17T23:19:49.366Z,3.60
2023-01-17T23:22:24.524Z,4.47
2023-01-17T23:24:55.892Z,4.45
2023-01-17T23:27:46.645Z,4.43
2023-01-17T23:30:15.945Z,4.00
2023-01-17T23:32:46.813Z,4.40
2023-01-17T23:35:14.719Z,4.10
2023-01-17T23:37:59.574Z,3.97
2023-01-17T23:40:26.246Z,4.45
2023-01-17T23:43:11.540Z,4.38
2023-01-17T23:45:39.235Z,3.67
2023-01-17T23:48:09.683Z,4.47
2023-01-17T23:50:38.348Z,3.65
2023-01-17T23:53:07.589Z,4.03
2023-01-17T23:55:40.170Z,3.80
2023-01-17T23:58:08.524Z,4.78
